Time;durP1;ratioP1;P1;durP2;ratioP2;P2;SDS_P1;SDS_P2;PMS_P1;PMS_P2;Temp;Humidity;BMP_temperature;BMP_pressure;BME280_temperature;BME280_humidity;BME280_pressure;Samples;Min_cycle;Max_cycle;Signal;HPM_P1;HPM_P2
2021/04/04 00:01:22;;;;;;;6.30;2.28;;;;;;;;;;5074575;28;20058;-65
2021/04/04 00:03:48;;;;;;;3.83;1.92;;;;;;;;;;5081804;28;20101;-65
2021/04/04 00:06:14;;;;;;;4.78;2.65;;;;;;;;;;5081120;28;20048;-65
2021/04/04 00:08:40;;;;;;;3.95;2.05;;;;;;;;;;5071005;28;20055;-65
2021/04/04 00:11:06;;;;;;;4.55;2.10;;;;;;;;;;5073425;28;20155;-65
2021/04/04 00:13:34;;;;;;;6.93;3.00;;;;;;;;;;5069891;28;20063;-65
2021/04/04 00:16:00;;;;;;;7.55;2.67;;;;;;;;;;5078455;28;20039;-65
2021/04/04 00:18:26;;;;;;;6.10;2.00;;;;;;;;;;5073270;28;20098;-65
2021/04/04 00:20:52;;;;;;;5.50;2.47;;;;;;;;;;5078009;28;20142;-65
2021/04/04 00:23:18;;;;;;;7.50;3.72;;;;;;;;;;5079261;28;20059;-66
2021/04/04 00:25:44;;;;;;;4.40;2.50;;;;;;;;;;5082357;28;20044;-65
2021/04/04 00:28:10;;;;;;;5.72;2.95;;;;;;;;;;5076611;28;20049;-65
2021/04/04 00:30:37;;;;;;;6.05;2.95;;;;;;;;;;5072490;28;20052;-65
2021/04/04 00:33:04;;;;;;;7.07;2.40;;;;;;;;;;5071865;28;20056;-65
2021/04/04 00:35:30;;;;;;;6.28;2.38;;;;;;;;;;5076260;28;20048;-65
2021/04/04 00:37:56;;;;;;;4.78;2.30;;;;;;;;;;5076916;28;20048;-65
2021/04/04 00:40:24;;;;;;;7.43;2.90;;;;;;;;;;5076099;28;20054;-65
2021/04/04 00:42:50;;;;;;;7.30;2.95;;;;;;;;;;5077230;28;20052;-65
2021/04/04 00:45:18;;;;;;;7.75;2.70;;;;;;;;;;5076391;28;20137;-65
2021/04/04 00:47:45;;;;;;;6.50;3.08;;;;;;;;;;5082268;28;20046;-65
2021/04/04 00:50:13;;;;;;;9.05;2.80;;;;;;;;;;5075292;28;20060;-66
2021/04/04 00:52:39;;;;;;;6.25;2.88;;;;;;;;;;5077550;28;20051;-65
2021/04/04 00:55:08;;;;;;;5.65;2.75;;;;;;;;;;5083633;28;20048;-66
2021/04/04 00:57:35;;;;;;;6.18;2.75;;;;;;;;;;5078013;28;20281;-65
2021/04/04 01:00:02;;;;;;;7.85;3.28;;;;;;;;;;5075460;28;20049;-65
2021/04/04 01:02:28;;;;;;;6.10;3.00;;;;;;;;;;5076098;28;20071;-66
2021/04/04 01:04:57;;;;;;;10.10;4.68;;;;;;;;;;5082540;28;20134;-66
2021/04/04 01:07:23;;;;;;;8.65;3.75;;;;;;;;;;5081748;28;20435;-66
2021/04/04 01:09:49;;;;;;;8.35;3.35;;;;;;;;;;5078657;28;20048;-67
2021/04/04 01:12:20;;;;;;;9.55;3.88;;;;;;;;;;5075846;28;20052;-66
2021/04/04 01:14:52;;;;;;;5.85;3.10;;;;;;;;;;5079319;28;21749;-65
2021/04/04 01:17:20;;;;;;;6.13;2.78;;;;;;;;;;5079535;28;20069;-66
2021/04/04 01:19:59;;;;;;;7.63;3.92;;;;;;;;;;5081342;28;20044;-66
2021/04/04 01:22:46;;;;;;;8.27;3.42;;;;;;;;;;5080212;28;20045;-66
2021/04/04 01:25:17;;;;;;;8.40;4.85;;;;;;;;;;5079323;28;20143;-66
2021/04/04 01:27:47;;;;;;;9.63;3.70;;;;;;;;;;5075757;28;20044;-66
2021/04/04 01:30:14;;;;;;;6.93;3.03;;;;;;;;;;5078158;28;20049;-66
2021/04/04 01:32:42;;;;;;;8.80;3.22;;;;;;;;;;5082997;28;20499;-66
2021/04/04 01:35:10;;;;;;;5.32;3.25;;;;;;;;;;5079247;28;20054;-66
2021/04/04 01:37:37;;;;;;;6.20;3.20;;;;;;;;;;5076346;28;20036;-66
2021/04/04 01:40:06;;;;;;;5.07;2.70;;;;;;;;;;5077627;28;20048;-66
2021/04/04 01:42:34;;;;;;;9.13;3.85;;;;;;;;;;5080263;28;20389;-66
2021/04/04 01:45:01;;;;;;;9.00;3.15;;;;;;;;;;5083656;28;20048;-66
2021/04/04 01:47:27;;;;;;;6.35;3.40;;;;;;;;;;5078189;28;20052;-66
2021/04/04 01:49:54;;;;;;;6.75;3.00;;;;;;;;;;5074089;28;20408;-66
2021/04/04 01:52:21;;;;;;;5.95;3.17;;;;;;;;;;5079144;28;20048;-66
2021/04/04 01:54:48;;;;;;;6.72;3.00;;;;;;;;;;5079168;28;20469;-66
2021/04/04 01:57:14;;;;;;;6.38;3.70;;;;;;;;;;5078288;28;20071;-66
2021/04/04 01:59:41;;;;;;;7.30;4.10;;;;;;;;;;5073332;28;20052;-66
2021/04/04 02:02:09;;;;;;;6.60;2.60;;;;;;;;;;5079199;28;20048;-66
2021/04/04 02:04:36;;;;;;;8.70;3.65;;;;;;;;;;5084692;28;20048;-66
2021/04/04 02:07:02;;;;;;;8.45;3.15;;;;;;;;;;5080444;28;20043;-66
2021/04/04 02:09:30;;;;;;;7.85;3.20;;;;;;;;;;5074103;28;20063;-66
2021/04/04 02:11:56;;;;;;;8.73;3.58;;;;;;;;;;5076030;28;20041;-66
2021/04/04 02:14:23;;;;;;;8.60;3.47;;;;;;;;;;5078336;28;20070;-66
2021/04/04 02:16:51;;;;;;;8.90;3.50;;;;;;;;;;5079758;28;20048;-66
2021/04/04 02:19:19;;;;;;;6.88;3.00;;;;;;;;;;5071366;28;20093;-66
2021/04/04 02:21:48;;;;;;;6.80;3.10;;;;;;;;;;5077867;28;20056;-66
2021/04/04 02:24:15;;;;;;;7.60;3.38;;;;;;;;;;5076834;28;20059;-66
2021/04/04 02:26:41;;;;;;;6.53;3.15;;;;;;;;;;5081232;28;20091;-66
2021/04/04 02:29:07;;;;;;;6.40;3.33;;;;;;;;;;5077640;28;20075;-66
2021/04/04 02:31:37;;;;;;;6.32;3.53;;;;;;;;;;5076789;28;20530;-66
2021/04/04 02:34:06;;;;;;;8.95;3.35;;;;;;;;;;5079906;28;20055;-66
2021/04/04 02:36:34;;;;;;;6.75;2.72;;;;;;;;;;5083394;28;20078;-66
2021/04/04 02:39:06;;;;;;;9.23;3.80;;;;;;;;;;5081142;28;20047;-66
2021/04/04 02:41:32;;;;;;;6.88;3.70;;;;;;;;;;5069730;28;20415;-66
2021/04/04 02:43:59;;;;;;;6.55;3.15;;;;;;;;;;5078105;28;20048;-66
2021/04/04 02:46:26;;;;;;;5.80;2.97;;;;;;;;;;5081150;28;20055;-66
2021/04/04 02:48:54;;;;;;;7.05;3.70;;;;;;;;;;5080988;28;20102;-67
2021/04/04 02:51:25;;;;;;;6.80;3.65;;;;;;;;;;5082525;28;20055;-69
2021/04/04 02:53:53;;;;;;;7.15;3.80;;;;;;;;;;5080131;28;20056;-66
2021/04/04 02:56:21;;;;;;;6.68;3.33;;;;;;;;;;5075041;28;20101;-66
2021/04/04 02:58:48;;;;;;;6.32;3.10;;;;;;;;;;5078716;28;20374;-67
2021/04/04 03:01:15;;;;;;;8.55;3.35;;;;;;;;;;5080749;28;20054;-66
2021/04/04 03:03:43;;;;;;;9.38;3.55;;;;;;;;;;5075934;28;20066;-66
2021/04/04 03:06:10;;;;;;;7.45;2.65;;;;;;;;;;5082744;28;20059;-66
2021/04/04 03:08:38;;;;;;;6.75;3.30;;;;;;;;;;5075423;28;20523;-66
2021/04/04 03:11:06;;;;;;;6.70;3.45;;;;;;;;;;5081069;28;20044;-66
2021/04/04 03:13:33;;;;;;;6.72;3.17;;;;;;;;;;5078417;28;20120;-66
2021/04/04 03:15:59;;;;;;;6.22;3.10;;;;;;;;;;5078363;28;20117;-66
2021/04/04 03:18:26;;;;;;;9.77;3.08;;;;;;;;;;5075629;28;20052;-66
2021/04/04 03:20:53;;;;;;;7.18;3.53;;;;;;;;;;5079107;28;20044;-66
2021/04/04 03:23:20;;;;;;;7.80;3.80;;;;;;;;;;5084563;28;20432;-66
2021/04/04 03:25:46;;;;;;;6.80;3.67;;;;;;;;;;5075618;28;20106;-66
2021/04/04 03:28:14;;;;;;;7.25;3.25;;;;;;;;;;5083903;28;20414;-66
2021/04/04 03:30:43;;;;;;;7.32;3.85;;;;;;;;;;5068868;28;20052;-66
2021/04/04 03:33:12;;;;;;;9.02;3.35;;;;;;;;;;5079522;28;20139;-66
2021/04/04 03:35:40;;;;;;;9.13;3.67;;;;;;;;;;5076541;28;20365;-66
2021/04/04 03:38:08;;;;;;;5.43;3.30;;;;;;;;;;5080989;28;20045;-66
2021/04/04 03:40:34;;;;;;;6.47;3.15;;;;;;;;;;5079678;28;20491;-66
2021/04/04 03:43:03;;;;;;;7.68;3.67;;;;;;;;;;5082813;28;20349;-66
2021/04/04 03:45:30;;;;;;;10.15;4.72;;;;;;;;;;5068003;28;20044;-66
2021/04/04 03:47:58;;;;;;;9.85;3.70;;;;;;;;;;5080567;28;20050;-66
2021/04/04 03:50:24;;;;;;;5.28;2.83;;;;;;;;;;5078408;28;20098;-66
2021/04/04 03:52:51;;;;;;;7.35;3.40;;;;;;;;;;5079252;28;20108;-66
2021/04/04 03:55:20;;;;;;;9.35;3.42;;;;;;;;;;5076460;28;20609;-66
2021/04/04 03:57:48;;;;;;;7.60;3.33;;;;;;;;;;5075119;28;20132;-66
2021/04/04 04:00:14;;;;;;;8.00;3.75;;;;;;;;;;5078632;28;20055;-66
2021/04/04 04:02:42;;;;;;;6.95;2.88;;;;;;;;;;5081571;28;20054;-66
2021/04/04 04:05:09;;;;;;;6.75;3.75;;;;;;;;;;5083064;28;20048;-66
2021/04/04 04:07:35;;;;;;;7.82;3.63;;;;;;;;;;5076970;28;20048;-66
2021/04/04 04:10:02;;;;;;;7.30;3.75;;;;;;;;;;5073704;28;20048;-66
2021/04/04 04:12:29;;;;;;;8.85;3.60;;;;;;;;;;5075209;28;20106;-66
2021/04/04 04:14:56;;;;;;;7.32;3.90;;;;;;;;;;5077818;28;20051;-66
2021/04/04 04:17:23;;;;;;;8.18;3.47;;;;;;;;;;5078973;28;20044;-66
2021/04/04 04:19:50;;;;;;;8.20;3.88;;;;;;;;;;5075565;28;20052;-66
2021/04/04 04:22:16;;;;;;;6.45;3.47;;;;;;;;;;5074500;28;20710;-66
2021/04/04 04:24:42;;;;;;;10.38;3.45;;;;;;;;;;5075675;28;20053;-66
2021/04/04 04:27:10;;;;;;;8.77;4.25;;;;;;;;;;5084186;28;20050;-66
2021/04/04 04:29:37;;;;;;;8.60;3.85;;;;;;;;;;5076588;28;20040;-66
2021/04/04 04:32:04;;;;;;;9.15;3.70;;;;;;;;;;5081496;28;20048;-66
2021/04/04 04:34:31;;;;;;;8.10;3.90;;;;;;;;;;5078545;28;20047;-66
2021/04/04 04:36:58;;;;;;;5.97;3.53;;;;;;;;;;5076844;28;20037;-66
2021/04/04 04:39:25;;;;;;;7.68;3.95;;;;;;;;;;5079974;28;20052;-66
2021/04/04 04:41:52;;;;;;;7.95;3.60;;;;;;;;;;5078648;28;20064;-66
2021/04/04 04:44:19;;;;;;;8.45;4.07;;;;;;;;;;5077762;28;20045;-66
2021/04/04 04:46:46;;;;;;;8.93;4.53;;;;;;;;;;5081379;28;20044;-66
2021/04/04 04:49:12;;;;;;;13.68;5.15;;;;;;;;;;5083753;28;20044;-66
2021/04/04 04:51:38;;;;;;;10.00;4.80;;;;;;;;;;5081739;28;20059;-66
2021/04/04 04:54:06;;;;;;;11.82;3.90;;;;;;;;;;5069730;28;20040;-66
2021/04/04 04:56:32;;;;;;;8.05;3.85;;;;;;;;;;5081240;28;20094;-66
2021/04/04 04:59:00;;;;;;;6.50;3.72;;;;;;;;;;5079793;28;20059;-66
2021/04/04 05:01:28;;;;;;;7.95;3.65;;;;;;;;;;5083336;28;20048;-66
2021/04/04 05:03:54;;;;;;;6.88;3.70;;;;;;;;;;5072717;28;20053;-66
2021/04/04 05:06:24;;;;;;;9.48;4.07;;;;;;;;;;5082771;28;20086;-66
2021/04/04 05:08:50;;;;;;;7.72;3.65;;;;;;;;;;5077591;28;20456;-67
2021/04/04 05:11:18;;;;;;;8.10;3.78;;;;;;;;;;5081800;28;20048;-66
2021/04/04 05:13:45;;;;;;;10.18;4.40;;;;;;;;;;5082155;28;20044;-66
2021/04/04 05:16:12;;;;;;;11.05;4.30;;;;;;;;;;5078706;28;20105;-67
2021/04/04 05:18:45;;;;;;;7.15;4.30;;;;;;;;;;5074773;28;20049;-66
2021/04/04 05:21:11;;;;;;;7.63;4.20;;;;;;;;;;5081518;28;20125;-66
2021/04/04 05:23:37;;;;;;;7.35;4.05;;;;;;;;;;5081637;28;20465;-66
2021/04/04 05:26:04;;;;;;;9.35;4.57;;;;;;;;;;5081075;28;20056;-66
2021/04/04 05:28:32;;;;;;;10.57;4.72;;;;;;;;;;5076019;28;20048;-66
2021/04/04 05:31:01;;;;;;;10.27;4.57;;;;;;;;;;5075507;28;20040;-66
2021/04/04 05:33:27;;;;;;;9.98;4.85;;;;;;;;;;5078135;28;20056;-66
2021/04/04 05:35:53;;;;;;;7.80;3.78;;;;;;;;;;5075928;28;20056;-66
2021/04/04 05:38:19;;;;;;;9.10;3.90;;;;;;;;;;5078647;28;20176;-66
2021/04/04 05:40:45;;;;;;;11.35;4.63;;;;;;;;;;5077376;28;20136;-66
2021/04/04 05:43:13;;;;;;;7.57;4.13;;;;;;;;;;5080330;28;20052;-66
2021/04/04 05:45:47;;;;;;;9.07;4.03;;;;;;;;;;5079684;28;20393;-66
2021/04/04 05:48:18;;;;;;;8.98;4.25;;;;;;;;;;5075490;28;20048;-66
2021/04/04 05:51:23;;;;;;;7.90;4.43;;;;;;;;;;5080712;28;20053;-66
2021/04/04 05:54:05;;;;;;;15.82;7.53;;;;;;;;;;5081487;28;20401;-66
2021/04/04 05:56:34;;;;;;;10.48;5.47;;;;;;;;;;5075714;28;20117;-66
2021/04/04 05:59:04;;;;;;;14.27;6.13;;;;;;;;;;5075754;28;20386;-66
2021/04/04 06:02:06;;;;;;;12.02;5.53;;;;;;;;;;5078068;28;20101;-66
2021/04/04 06:04:57;;;;;;;12.65;5.35;;;;;;;;;;5076315;28;20459;-66
2021/04/04 06:07:40;;;;;;;12.57;4.85;;;;;;;;;;5073599;28;20461;-66
2021/04/04 06:10:07;;;;;;;10.30;4.47;;;;;;;;;;5081176;28;20058;-66
2021/04/04 06:13:00;;;;;;;11.05;4.32;;;;;;;;;;5072553;28;20048;-66
2021/04/04 06:15:38;;;;;;;12.68;4.28;;;;;;;;;;5040434;28;20056;-66
2021/04/04 06:18:12;;;;;;;7.10;3.65;;;;;;;;;;5084465;28;20048;-66
2021/04/04 06:20:45;;;;;;;8.02;4.35;;;;;;;;;;5079864;28;20059;-66
2021/04/04 06:23:17;;;;;;;9.20;5.75;;;;;;;;;;5077545;28;20040;-66
2021/04/04 06:25:54;;;;;;;7.18;4.75;;;;;;;;;;5073258;28;20045;-66
2021/04/04 06:28:30;;;;;;;9.82;4.82;;;;;;;;;;5072754;28;20056;-66
2021/04/04 06:30:58;;;;;;;;;;;;;;;;;;5075707;28;20493;-66
2021/04/04 06:33:26;;;;;;;5.55;3.40;;;;;;;;;;5076819;28;20459;-66
2021/04/04 06:36:24;;;;;;;9.90;4.53;;;;;;;;;;5069712;28;20050;-66
2021/04/04 06:39:04;;;;;;;9.93;4.95;;;;;;;;;;5033030;28;20052;-66
2021/04/04 06:41:43;;;;;;;9.90;4.22;;;;;;;;;;5070314;28;20483;-67
2021/04/04 06:44:19;;;;;;;9.60;4.80;;;;;;;;;;5070685;28;20056;-66
2021/04/04 06:46:54;;;;;;;9.18;4.50;;;;;;;;;;5072930;28;20550;-65
2021/04/04 06:49:30;;;;;;;10.07;4.90;;;;;;;;;;5066926;28;20095;-69
2021/04/04 06:52:03;;;;;;;11.70;4.83;;;;;;;;;;5071739;28;20041;-67
2021/04/04 06:54:34;;;;;;;10.18;6.00;;;;;;;;;;5072133;28;20290;-66
2021/04/04 06:57:12;;;;;;;11.35;5.30;;;;;;;;;;5070783;28;20121;-66
2021/04/04 06:59:48;;;;;;;8.50;4.60;;;;;;;;;;5072458;28;20052;-67
2021/04/04 07:02:15;;;;;;;9.82;5.70;;;;;;;;;;5073868;28;20569;-67
2021/04/04 07:04:47;;;;;;;12.32;5.38;;;;;;;;;;5071357;28;20484;-66
2021/04/04 07:07:51;;;;;;;8.13;4.55;;;;;;;;;;5070984;28;20056;-66
2021/04/04 07:10:27;;;;;;;8.85;4.47;;;;;;;;;;5073161;28;20051;-66
2021/04/04 07:13:19;;;;;;;11.40;5.25;;;;;;;;;;5081428;28;20407;-66
2021/04/04 07:15:56;;;;;;;9.60;5.13;;;;;;;;;;5081065;28;20056;-67
2021/04/04 07:18:35;;;;;;;8.85;4.80;;;;;;;;;;5081511;28;20101;-67
2021/04/04 07:21:25;;;;;;;10.30;4.82;;;;;;;;;;5074549;28;20052;-67
2021/04/04 07:23:57;;;;;;;7.90;4.82;;;;;;;;;;5078340;28;20123;-66
2021/04/04 07:26:36;;;;;;;10.10;4.82;;;;;;;;;;5079962;28;20058;-66
2021/04/04 07:29:19;;;;;;;9.80;5.03;;;;;;;;;;5078629;28;20669;-67
2021/04/04 07:31:47;;;;;;;10.50;4.95;;;;;;;;;;5079332;28;20055;-66
2021/04/04 07:34:16;;;;;;;9.63;4.55;;;;;;;;;;5081003;28;20072;-66
2021/04/04 07:36:53;;;;;;;9.00;4.20;;;;;;;;;;5081562;28;20044;-65
2021/04/04 07:39:26;;;;;;;7.20;4.38;;;;;;;;;;5076416;28;20481;-65
2021/04/04 07:41:56;;;;;;;10.68;4.55;;;;;;;;;;5080848;28;20665;-65
2021/04/04 07:44:24;;;;;;;12.10;4.68;;;;;;;;;;5077881;28;20094;-65
2021/04/04 07:46:54;;;;;;;9.00;4.25;;;;;;;;;;5081797;28;20494;-65
2021/04/04 07:49:33;;;;;;;11.05;4.88;;;;;;;;;;5078379;28;20052;-65
2021/04/04 07:52:05;;;;;;;10.55;4.63;;;;;;;;;;5076887;28;20052;-67
2021/04/04 07:54:37;;;;;;;12.95;6.43;;;;;;;;;;5081318;28;20064;-66
2021/04/04 07:57:07;;;;;;;10.93;4.85;;;;;;;;;;5081205;28;20043;-69
2021/04/04 07:59:39;;;;;;;8.48;5.07;;;;;;;;;;5081377;28;20404;-66
2021/04/04 08:02:11;;;;;;;7.60;4.45;;;;;;;;;;5084206;28;20062;-66
2021/04/04 08:04:41;;;;;;;10.55;4.78;;;;;;;;;;5080546;28;20052;-66
2021/04/04 08:07:20;;;;;;;9.93;4.47;;;;;;;;;;5083802;28;20059;-65
2021/04/04 08:09:52;;;;;;;7.22;4.00;;;;;;;;;;5086326;28;20044;-66
2021/04/04 08:12:34;;;;;;;8.98;4.68;;;;;;;;;;5083326;28;20439;-65
2021/04/04 08:15:04;;;;;;;10.27;5.43;;;;;;;;;;5083592;28;20460;-65
2021/04/04 08:17:30;;;;;;;10.90;4.53;;;;;;;;;;5087915;28;20093;-65
2021/04/04 08:20:00;;;;;;;8.32;3.85;;;;;;;;;;5081433;28;20084;-65
2021/04/04 08:22:30;;;;;;;6.20;4.25;;;;;;;;;;5073078;28;20384;-65
2021/04/04 08:25:00;;;;;;;8.13;3.97;;;;;;;;;;5081911;28;20117;-65
2021/04/04 08:27:29;;;;;;;8.00;3.90;;;;;;;;;;5083344;28;20048;-65
2021/04/04 08:30:00;;;;;;;11.93;4.65;;;;;;;;;;5085523;28;20056;-65
2021/04/04 08:32:29;;;;;;;7.72;4.13;;;;;;;;;;5079677;28;20484;-65
2021/04/04 08:34:57;;;;;;;9.07;4.43;;;;;;;;;;5076409;28;20388;-66
2021/04/04 08:37:25;;;;;;;6.68;3.53;;;;;;;;;;5078640;28;20055;-66
2021/04/04 08:39:55;;;;;;;7.70;2.95;;;;;;;;;;5084333;28;20048;-67
2021/04/04 08:42:22;;;;;;;6.55;2.90;;;;;;;;;;5076017;28;20108;-65
2021/04/04 08:44:52;;;;;;;6.95;3.40;;;;;;;;;;5074197;28;20032;-65
2021/04/04 08:47:22;;;;;;;6.25;2.90;;;;;;;;;;5072491;28;20048;-65
2021/04/04 08:49:48;;;;;;;4.75;2.80;;;;;;;;;;5074892;28;20044;-65
2021/04/04 08:52:18;;;;;;;5.35;2.80;;;;;;;;;;5075982;28;20075;-66
2021/04/04 08:54:49;;;;;;;7.00;3.17;;;;;;;;;;5080725;28;20664;-65
2021/04/04 08:57:16;;;;;;;6.03;3.15;;;;;;;;;;5077201;28;20040;-66
2021/04/04 08:59:43;;;;;;;7.45;3.47;;;;;;;;;;5080219;28;20056;-66
2021/04/04 09:02:10;;;;;;;7.78;3.65;;;;;;;;;;5081515;28;20047;-67
2021/04/04 09:04:40;;;;;;;6.97;3.35;;;;;;;;;;5082054;28;20040;-65
2021/04/04 09:07:06;;;;;;;11.25;3.55;;;;;;;;;;5075606;28;20041;-65
2021/04/04 09:09:36;;;;;;;5.18;2.72;;;;;;;;;;5078787;28;20053;-65
2021/04/04 09:12:03;;;;;;;6.22;2.80;;;;;;;;;;5078162;28;20054;-66
2021/04/04 09:14:36;;;;;;;8.20;3.33;;;;;;;;;;5079023;28;20051;-67
2021/04/04 09:17:06;;;;;;;6.20;2.65;;;;;;;;;;5078373;28;20047;-65
2021/04/04 09:19:34;;;;;;;4.55;2.78;;;;;;;;;;5079316;28;20044;-64
2021/04/04 09:22:03;;;;;;;6.50;3.45;;;;;;;;;;5082554;28;20048;-64
2021/04/04 09:24:30;;;;;;;8.82;3.30;;;;;;;;;;5085399;28;20053;-65
2021/04/04 09:26:56;;;;;;;6.20;2.80;;;;;;;;;;5083797;28;20594;-64
2021/04/04 09:29:23;;;;;;;5.95;2.85;;;;;;;;;;5084026;28;20045;-65
2021/04/04 09:31:51;;;;;;;4.60;2.40;;;;;;;;;;5083723;28;20044;-64
2021/04/04 09:34:18;;;;;;;5.07;2.03;;;;;;;;;;5078579;28;20062;-65
2021/04/04 09:36:46;;;;;;;5.97;2.85;;;;;;;;;;5084000;28;20075;-64
2021/04/04 09:39:15;;;;;;;4.95;2.63;;;;;;;;;;5084383;28;20485;-65
2021/04/04 09:41:41;;;;;;;4.45;2.40;;;;;;;;;;5082164;28;20090;-66
2021/04/04 09:44:09;;;;;;;6.00;3.10;;;;;;;;;;5082611;28;20409;-65
2021/04/04 09:46:50;;;;;;;5.50;2.58;;;;;;;;;;5079858;28;20058;-65
2021/04/04 09:49:35;;;;;;;6.35;2.55;;;;;;;;;;5076545;28;20048;-65
2021/04/04 09:52:14;;;;;;;5.20;2.08;;;;;;;;;;5082178;28;20048;-66
2021/04/04 09:54:54;;;;;;;5.10;2.03;;;;;;;;;;5085042;28;20061;-66
2021/04/04 09:57:20;;;;;;;3.60;2.05;;;;;;;;;;5078044;28;20051;-65
2021/04/04 09:59:46;;;;;;;3.10;1.80;;;;;;;;;;5081706;28;20059;-66
2021/04/04 10:02:13;;;;;;;6.35;2.00;;;;;;;;;;5078396;28;20044;-66
2021/04/04 10:04:43;;;;;;;4.40;2.22;;;;;;;;;;5084287;28;20060;-65
2021/04/04 10:07:09;;;;;;;4.40;2.30;;;;;;;;;;5084071;28;20051;-66
2021/04/04 10:09:38;;;;;;;4.65;2.00;;;;;;;;;;5085544;28;20048;-66
2021/04/04 10:12:05;;;;;;;7.18;2.80;;;;;;;;;;5082129;28;20055;-66
2021/04/04 10:14:31;;;;;;;5.82;2.17;;;;;;;;;;5083544;28;20056;-66
2021/04/04 10:17:11;;;;;;;3.28;1.95;;;;;;;;;;5080851;28;20477;-66
2021/04/04 10:19:53;;;;;;;4.78;1.92;;;;;;;;;;5080400;28;20377;-66
2021/04/04 10:22:19;;;;;;;5.93;2.13;;;;;;;;;;5081602;28;20044;-65
2021/04/04 10:24:46;;;;;;;6.05;2.22;;;;;;;;;;5084455;28;20052;-66
2021/04/04 10:27:20;;;;;;;5.63;2.00;;;;;;;;;;5082964;28;20536;-66
2021/04/04 10:29:48;;;;;;;5.45;2.30;;;;;;;;;;5078541;28;20048;-65
2021/04/04 10:32:14;;;;;;;4.13;1.90;;;;;;;;;;5082214;28;20139;-65
2021/04/04 10:34:44;;;;;;;4.13;2.15;;;;;;;;;;5084858;28;20044;-65
2021/04/04 10:37:11;;;;;;;7.20;2.05;;;;;;;;;;5078352;28;20127;-66
2021/04/04 10:39:38;;;;;;;3.97;2.22;;;;;;;;;;5070442;28;20101;-65
2021/04/04 10:42:14;;;;;;;4.03;2.38;;;;;;;;;;5079104;28;20409;-67
2021/04/04 10:44:40;;;;;;;5.13;2.15;;;;;;;;;;5079610;28;20048;-66
2021/04/04 10:47:19;;;;;;;6.20;2.33;;;;;;;;;;5082751;28;20063;-67
2021/04/04 10:49:46;;;;;;;5.60;2.40;;;;;;;;;;5067391;28;20049;-66
2021/04/04 10:52:13;;;;;;;4.97;2.38;;;;;;;;;;5074909;28;20048;-66
2021/04/04 10:54:40;;;;;;;6.63;2.60;;;;;;;;;;5082139;28;20132;-67
2021/04/04 10:57:08;;;;;;;7.20;2.28;;;;;;;;;;5079692;28;20086;-66
2021/04/04 10:59:34;;;;;;;4.13;2.08;;;;;;;;;;5072492;28;20052;-67
2021/04/04 11:02:02;;;;;;;4.13;2.08;;;;;;;;;;5075720;28;20540;-66
2021/04/04 11:04:31;;;;;;;4.68;2.17;;;;;;;;;;5078044;28;20049;-66
2021/04/04 11:06:57;;;;;;;4.65;2.38;;;;;;;;;;5077543;28;20429;-66
2021/04/04 11:09:24;;;;;;;4.47;2.42;;;;;;;;;;5080132;28;20044;-66
2021/04/04 11:11:51;;;;;;;5.85;2.30;;;;;;;;;;5076771;28;20048;-66
2021/04/04 11:14:17;;;;;;;4.90;2.10;;;;;;;;;;5070994;28;20070;-65
2021/04/04 11:16:43;;;;;;;4.60;2.13;;;;;;;;;;5079534;28;20048;-67
2021/04/04 11:19:09;;;;;;;4.22;2.25;;;;;;;;;;5078663;28;20056;-65
2021/04/04 11:21:38;;;;;;;4.55;2.20;;;;;;;;;;5084314;28;20058;-66
2021/04/04 11:24:05;;;;;;;3.83;2.20;;;;;;;;;;5080231;28;20051;-66
2021/04/04 11:26:36;;;;;;;6.57;2.40;;;;;;;;;;5076102;28;20433;-68
2021/04/04 11:29:09;;;;;;;5.22;2.28;;;;;;;;;;5068961;28;20085;-64
2021/04/04 11:31:36;;;;;;;5.20;2.33;;;;;;;;;;5078929;28;20050;-68
2021/04/04 11:34:25;;;;;;;8.18;2.70;;;;;;;;;;5080376;28;20047;-67
2021/04/04 11:36:51;;;;;;;4.78;1.75;;;;;;;;;;5076715;28;20593;-67
2021/04/04 11:39:17;;;;;;;4.07;2.35;;;;;;;;;;5078895;28;20190;-67
2021/04/04 11:41:49;;;;;;;5.18;2.10;;;;;;;;;;5076443;28;20147;-66
2021/04/04 11:44:22;;;;;;;32.72;4.47;;;;;;;;;;5078049;28;20052;-66
2021/04/04 11:46:51;;;;;;;4.53;2.40;;;;;;;;;;5069295;28;20045;-65
2021/04/04 11:49:49;;;;;;;5.85;2.40;;;;;;;;;;5076576;28;20040;-64
2021/04/04 11:52:38;;;;;;;6.88;3.00;;;;;;;;;;5077947;28;20076;-66
2021/04/04 11:55:08;;;;;;;8.75;3.45;;;;;;;;;;5078588;28;20105;-65
2021/04/04 11:57:37;;;;;;;15.68;3.22;;;;;;;;;;5071416;28;20401;-67
2021/04/04 12:00:07;;;;;;;4.88;2.30;;;;;;;;;;5074865;28;20071;-67
2021/04/04 12:02:35;;;;;;;5.22;2.45;;;;;;;;;;5076155;28;20040;-72
2021/04/04 12:05:06;;;;;;;5.03;2.88;;;;;;;;;;5077854;28;20156;-66
2021/04/04 12:07:33;;;;;;;4.05;2.00;;;;;;;;;;5069218;28;20048;-67
2021/04/04 12:09:59;;;;;;;5.28;2.35;;;;;;;;;;5074608;28;20535;-69
2021/04/04 12:12:31;;;;;;;6.90;3.03;;;;;;;;;;5076603;28;20464;-70
2021/04/04 12:15:00;;;;;;;4.38;2.28;;;;;;;;;;5079780;28;20135;-71
2021/04/04 12:17:29;;;;;;;5.18;2.45;;;;;;;;;;5076655;28;20048;-71
2021/04/04 12:19:55;;;;;;;11.10;2.53;;;;;;;;;;5073157;28;20056;-70
2021/04/04 12:22:33;;;;;;;3.97;2.35;;;;;;;;;;5077015;28;20132;-65
2021/04/04 12:24:59;;;;;;;5.10;2.15;;;;;;;;;;5076116;28;20120;-64
2021/04/04 12:27:28;;;;;;;4.00;2.30;;;;;;;;;;5080251;28;20392;-67
2021/04/04 12:29:56;;;;;;;5.65;2.25;;;;;;;;;;5077738;28;20481;-65
2021/04/04 12:32:25;;;;;;;5.10;2.22;;;;;;;;;;5076411;28;20098;-66
2021/04/04 12:34:52;;;;;;;5.88;2.28;;;;;;;;;;5072617;28;20145;-65
2021/04/04 12:37:20;;;;;;;6.20;2.15;;;;;;;;;;5072185;28;20052;-66
2021/04/04 12:39:47;;;;;;;4.75;2.50;;;;;;;;;;5075266;28;20058;-66
2021/04/04 12:42:14;;;;;;;4.50;2.00;;;;;;;;;;5077629;28;20054;-68
2021/04/04 12:44:42;;;;;;;6.47;2.58;;;;;;;;;;5075270;28;20049;-68
2021/04/04 12:47:09;;;;;;;5.10;2.63;;;;;;;;;;5083534;28;20125;-67
2021/04/04 12:49:53;;;;;;;7.15;2.63;;;;;;;;;;5081993;28;20058;-67
2021/04/04 12:52:37;;;;;;;9.80;2.30;;;;;;;;;;5079842;28;20091;-65
2021/04/04 12:55:11;;;;;;;5.65;2.53;;;;;;;;;;5079997;28;20384;-65
2021/04/04 12:57:37;;;;;;;3.72;2.05;;;;;;;;;;5079462;28;20052;-66
2021/04/04 13:00:05;;;;;;;5.60;2.45;;;;;;;;;;5082171;28;20044;-66
2021/04/04 13:02:31;;;;;;;3.58;2.20;;;;;;;;;;5077712;28;20052;-65
2021/04/04 13:04:58;;;;;;;5.50;2.50;;;;;;;;;;5080269;28;20045;-64
2021/04/04 13:07:25;;;;;;;4.65;2.45;;;;;;;;;;5081317;28;20059;-67
2021/04/04 13:09:51;;;;;;;8.18;2.78;;;;;;;;;;5081475;28;20049;-68
2021/04/04 13:12:19;;;;;;;4.70;2.22;;;;;;;;;;5078777;28;20044;-65
2021/04/04 13:14:45;;;;;;;3.53;2.25;;;;;;;;;;5082297;28;20043;-66
2021/04/04 13:17:11;;;;;;;4.97;1.90;;;;;;;;;;5079777;28;20655;-66
2021/04/04 13:19:39;;;;;;;5.18;2.42;;;;;;;;;;5083809;28;20050;-68
2021/04/04 13:22:06;;;;;;;4.35;1.77;;;;;;;;;;5080817;28;20447;-67
2021/04/04 13:24:32;;;;;;;4.50;2.33;;;;;;;;;;5081766;28;20452;-67
2021/04/04 13:26:59;;;;;;;4.03;2.03;;;;;;;;;;5089003;28;20423;-66
2021/04/04 13:29:38;;;;;;;5.75;2.75;;;;;;;;;;5080298;28;20049;-68
2021/04/04 13:32:05;;;;;;;4.57;2.42;;;;;;;;;;5079808;28;20044;-66
2021/04/04 13:34:36;;;;;;;4.72;2.28;;;;;;;;;;5078979;28;20146;-66
2021/04/04 13:37:03;;;;;;;6.30;2.88;;;;;;;;;;5075197;28;20082;-66
2021/04/04 13:39:35;;;;;;;4.75;2.55;;;;;;;;;;5079267;28;20060;-67
2021/04/04 13:42:03;;;;;;;4.95;2.33;;;;;;;;;;5077193;28;20048;-68
2021/04/04 13:44:30;;;;;;;4.32;2.05;;;;;;;;;;5075549;28;20048;-66
2021/04/04 13:46:56;;;;;;;4.93;2.50;;;;;;;;;;5077379;28;20055;-67
2021/04/04 13:49:33;;;;;;;4.72;2.03;;;;;;;;;;5073998;28;20133;-68
2021/04/04 13:52:10;;;;;;;4.03;2.20;;;;;;;;;;5071965;28;20052;-66
2021/04/04 13:54:37;;;;;;;3.85;2.38;;;;;;;;;;5073825;28;20110;-66
2021/04/04 13:57:04;;;;;;;4.35;2.33;;;;;;;;;;5070009;28;20040;-66
2021/04/04 13:59:32;;;;;;;4.20;2.60;;;;;;;;;;5072455;28;20135;-67
2021/04/04 14:01:59;;;;;;;8.98;2.55;;;;;;;;;;5071294;28;20059;-65
2021/04/04 14:04:27;;;;;;;6.85;2.35;;;;;;;;;;5073591;28;20051;-66
2021/04/04 14:06:56;;;;;;;4.43;2.28;;;;;;;;;;5070161;28;20040;-65
2021/04/04 14:09:22;;;;;;;4.95;2.33;;;;;;;;;;5070906;28;20064;-65
2021/04/04 14:11:50;;;;;;;4.75;2.85;;;;;;;;;;5071240;28;20091;-65
2021/04/04 14:14:16;;;;;;;5.10;3.08;;;;;;;;;;5070654;28;20445;-65
2021/04/04 14:16:42;;;;;;;12.20;7.80;;;;;;;;;;5074843;28;20052;-65
2021/04/04 14:19:12;;;;;;;6.25;3.00;;;;;;;;;;5074568;28;20044;-65
2021/04/04 14:21:38;;;;;;;4.40;2.45;;;;;;;;;;5070691;28;20051;-65
2021/04/04 14:24:04;;;;;;;4.03;2.53;;;;;;;;;;5076210;28;20134;-64
2021/04/04 14:26:30;;;;;;;6.85;2.60;;;;;;;;;;5078693;28;20044;-64
2021/04/04 14:28:57;;;;;;;4.68;2.33;;;;;;;;;;5078458;28;20044;-64
2021/04/04 14:31:23;;;;;;;3.85;1.90;;;;;;;;;;5073489;28;20072;-64
2021/04/04 14:33:49;;;;;;;4.00;2.30;;;;;;;;;;5078058;28;20040;-66
2021/04/04 14:36:16;;;;;;;5.22;2.42;;;;;;;;;;5076787;28;20051;-67
2021/04/04 14:38:43;;;;;;;5.20;1.98;;;;;;;;;;5074563;28;20412;-66
2021/04/04 14:41:09;;;;;;;4.47;2.22;;;;;;;;;;5076604;28;20070;-65
2021/04/04 14:43:47;;;;;;;3.58;2.13;;;;;;;;;;5078147;28;20099;-65
2021/04/04 14:46:15;;;;;;;3.05;1.88;;;;;;;;;;5076981;28;20041;-63
2021/04/04 14:48:42;;;;;;;3.20;1.80;;;;;;;;;;5077588;28;20504;-65
2021/04/04 14:51:08;;;;;;;5.40;2.15;;;;;;;;;;5075454;28;20044;-65
2021/04/04 14:53:34;;;;;;;5.28;2.47;;;;;;;;;;5073359;28;20048;-66
2021/04/04 14:56:01;;;;;;;4.38;1.75;;;;;;;;;;5077495;28;20052;-66